createdAt,value
2022-12-16T00:01:24.741Z,98.43
2022-12-16T00:03:55.878Z,105.82
2022-12-16T00:06:24.006Z,98.32
2022-12-16T00:08:51.964Z,97.78
2022-12-16T00:11:20.118Z,87.18
2022-12-16T00:13:47.761Z,92.32
2022-12-16T00:16:16.311Z,76.90
2022-12-16T00:18:43.870Z,81.07
2022-12-16T00:21:11.191Z,82.72
2022-12-16T00:23:41.901Z,81.78
2022-12-16T00:26:09.699Z,91.63
2022-12-16T00:28:37.279Z,87.38
2022-12-16T00:31:04.654Z,98.38
2022-12-16T00:33:32.293Z,84.63
2022-12-16T00:35:59.721Z,77.78
2022-12-16T00:38:27.410Z,73.35
2022-12-16T00:40:54.949Z,80.15
2022-12-16T00:43:22.308Z,84.03
2022-12-16T00:45:49.745Z,76.10
2022-12-16T00:48:19.368Z,80.80
2022-12-16T00:50:55.981Z,83.68
2022-12-16T00:53:23.868Z,86.90
2022-12-16T00:55:51.279Z,93.75
2022-12-16T00:58:19.078Z,96.15
2022-12-16T01:00:46.602Z,92.47
2022-12-16T01:03:19.493Z,87.88
2022-12-16T01:05:48.634Z,87.35
2022-12-16T01:08:15.792Z,89.55
2022-12-16T01:10:42.915Z,93.32
2022-12-16T01:13:10.108Z,99.68
2022-12-16T01:15:38.139Z,90.13
2022-12-16T01:18:05.641Z,95.85
2022-12-16T01:20:34.474Z,87.97
2022-12-16T01:23:01.608Z,93.30
2022-12-16T01:25:28.938Z,93.10
2022-12-16T01:27:56.172Z,88.75
2022-12-16T01:30:24.019Z,97.22
2022-12-16T01:32:51.170Z,93.68
2022-12-16T01:35:51.528Z,92.47
2022-12-16T01:38:06.482Z,86.80
2022-12-16T01:40:33.707Z,84.63
2022-12-16T01:43:00.844Z,86.95
2022-12-16T01:45:28.078Z,84.20
2022-12-16T01:47:55.961Z,88.32
2022-12-16T01:50:23.213Z,80.60
2022-12-16T01:52:53.505Z,79.22
2022-12-16T01:55:24.080Z,82.22
2022-12-16T01:57:55.197Z,83.60
2022-12-16T02:00:22.630Z,91.90
2022-12-16T02:02:50.184Z,87.63
2022-12-16T02:05:20.530Z,92.70
2022-12-16T02:08:02.954Z,82.15
2022-12-16T02:10:32.864Z,89.70
2022-12-16T02:13:03.614Z,92.88
2022-12-16T02:15:37.153Z,96.38
2022-12-16T02:18:07.222Z,84.30
2022-12-16T02:20:52.563Z,90.40
2022-12-16T02:23:22.629Z,98.95
2022-12-16T02:26:12.161Z,96.47
2022-12-16T02:28:58.180Z,94.22
2022-12-16T02:31:27.053Z,103.97
2022-12-16T02:33:54.397Z,91.78
2022-12-16T02:36:30.671Z,94.15
2022-12-16T02:39:00.764Z,87.20
2022-12-16T02:41:41.602Z,89.25
2022-12-16T02:44:09.625Z,94.43
2022-12-16T02:46:41.812Z,92.88
2022-12-16T02:49:10.303Z,95.13
2022-12-16T02:51:38.781Z,89.47
2022-12-16T02:54:08.286Z,93.55
2022-12-16T02:56:35.420Z,98.78
2022-12-16T02:59:05.559Z,95.53
2022-12-16T03:01:37.786Z,98.55
2022-12-16T03:04:21.327Z,99.95
2022-12-16T03:06:50.765Z,106.65
2022-12-16T03:09:20.112Z,109.53
2022-12-16T03:11:48.797Z,124.93
2022-12-16T03:14:17.268Z,132.98
2022-12-16T03:16:45.666Z,130.95
2022-12-16T03:19:13.534Z,140.40
2022-12-16T03:21:49.904Z,136.38
2022-12-16T03:24:17.140Z,131.45
2022-12-16T03:26:48.723Z,143.82
2022-12-16T03:29:25.596Z,161.60
2022-12-16T03:31:52.689Z,156.32
2022-12-16T03:34:38.460Z,144.48
2022-12-16T03:37:07.773Z,144.32
2022-12-16T03:39:36.643Z,168.82
2022-12-16T03:42:04.433Z,169.10
2022-12-16T03:44:32.209Z,198.45
2022-12-16T03:46:59.411Z,220.25
2022-12-16T03:49:26.684Z,230.68
2022-12-16T03:51:54.915Z,184.35
2022-12-16T03:54:23.187Z,186.82
2022-12-16T03:56:50.348Z,181.68
2022-12-16T03:59:17.623Z,179.48
2022-12-16T04:01:44.886Z,189.45
2022-12-16T04:04:12.509Z,182.15
2022-12-16T04:06:39.640Z,201.18
2022-12-16T04:09:06.839Z,178.43
2022-12-16T04:11:52.590Z,168.45
2022-12-16T04:14:38.501Z,147.40
2022-12-16T04:17:25.097Z,125.25
2022-12-16T04:20:11.192Z,146.00
2022-12-16T04:23:01.231Z,136.82
2022-12-16T04:25:28.330Z,134.50
2022-12-16T04:27:55.496Z,154.07
2022-12-16T04:30:22.787Z,138.43
2022-12-16T04:33:13.444Z,122.82
2022-12-16T04:35:59.345Z,170.93
2022-12-16T04:38:45.279Z,128.48
2022-12-16T04:41:31.471Z,175.70
2022-12-16T04:44:17.132Z,135.43
2022-12-16T04:47:03.317Z,121.40
2022-12-16T04:49:49.226Z,125.65
2022-12-16T04:52:35.302Z,132.60
2022-12-16T04:55:21.130Z,130.27
2022-12-16T04:58:08.713Z,149.13
2022-12-16T05:00:54.757Z,144.73
2022-12-16T05:03:41.650Z,183.70
2022-12-16T05:06:27.443Z,163.18
2022-12-16T05:09:13.461Z,138.90
2022-12-16T05:11:59.356Z,134.27
2022-12-16T05:14:45.462Z,147.38
2022-12-16T05:17:31.265Z,150.50
2022-12-16T05:20:17.382Z,151.10
2022-12-16T05:23:03.492Z,166.68
2022-12-16T05:25:49.413Z,158.15
2022-12-16T05:28:35.289Z,154.13
2022-12-16T05:31:21.472Z,146.68
2022-12-16T05:34:07.351Z,168.73
2022-12-16T05:36:53.327Z,165.80
2022-12-16T05:39:39.212Z,183.05
2022-12-16T05:42:25.185Z,213.65
2022-12-16T05:45:11.234Z,186.48
2022-12-16T05:47:57.287Z,206.85
2022-12-16T05:50:43.114Z,319.10
2022-12-16T05:53:29.295Z,265.85
2022-12-16T05:56:15.222Z,186.20
2022-12-16T05:59:01.116Z,230.48
2022-12-16T06:01:47.206Z,255.40
2022-12-16T06:04:33.013Z,201.98
2022-12-16T06:07:18.928Z,281.65
2022-12-16T06:10:05.133Z,173.07
2022-12-16T06:12:51.002Z,265.30
2022-12-16T06:15:37.051Z,228.45
2022-12-16T06:18:23.004Z,168.25
2022-12-16T06:21:08.924Z,166.13
2022-12-16T06:23:54.878Z,160.73
2022-12-16T06:26:40.777Z,111.43
2022-12-16T06:29:28.348Z,99.00
2022-12-16T06:32:14.361Z,95.90
2022-12-16T06:35:00.238Z,88.47
2022-12-16T06:38:03.071Z,82.47
2022-12-16T06:40:48.895Z,83.35
2022-12-16T06:43:35.321Z,101.28
2022-12-16T06:46:21.694Z,97.05
2022-12-16T06:49:07.656Z,133.48
2022-12-16T06:51:53.552Z,141.52
2022-12-16T06:54:39.727Z,143.40
2022-12-16T06:57:25.614Z,140.38
2022-12-16T07:00:11.490Z,113.80
2022-12-16T07:02:57.450Z,159.45
2022-12-16T07:05:43.169Z,122.75
2022-12-16T07:08:29.186Z,135.13
2022-12-16T07:11:16.990Z,149.10
2022-12-16T07:14:03.605Z,169.40
2022-12-16T07:16:54.329Z,97.95
2022-12-16T07:19:40.265Z,129.05
2022-12-16T07:22:26.180Z,136.82
2022-12-16T07:25:12.147Z,154.13
2022-12-16T07:27:58.170Z,133.98
2022-12-16T07:30:44.010Z,139.50
2022-12-16T07:33:30.208Z,120.70
2022-12-16T08:49:52.531Z,83.30
2022-12-16T08:52:40.730Z,76.30
2022-12-16T08:55:29.623Z,72.30
2022-12-16T08:58:15.718Z,73.30
2022-12-16T09:01:06.618Z,63.80
2022-12-16T09:03:53.502Z,67.35
2022-12-16T09:06:40.833Z,67.70
2022-12-16T09:09:27.388Z,69.72
2022-12-16T09:12:13.521Z,68.18
2022-12-16T09:14:59.203Z,56.47
2022-12-16T09:17:45.008Z,58.22
2022-12-16T09:20:30.899Z,63.90
2022-12-16T09:23:20.527Z,59.72
2022-12-16T09:26:06.448Z,60.00
2022-12-16T09:28:52.370Z,54.85
2022-12-16T09:31:38.624Z,55.92
2022-12-16T09:34:24.450Z,53.17
2022-12-16T09:37:10.377Z,45.50
2022-12-16T09:39:56.341Z,51.40
2022-12-16T09:42:55.516Z,50.58
2022-12-16T09:45:50.564Z,45.95
2022-12-16T09:48:42.404Z,46.47
2022-12-16T09:51:28.853Z,40.85
2022-12-16T09:54:15.528Z,46.08
2022-12-16T09:57:02.259Z,47.25
2022-12-16T09:59:49.999Z,55.17
2022-12-16T10:02:37.138Z,62.47
2022-12-16T10:05:28.896Z,58.05
2022-12-16T10:11:10.690Z,50.70
2022-12-16T10:16:48.268Z,58.17
2022-12-16T10:19:39.842Z,65.80
2022-12-16T10:25:11.275Z,59.70
2022-12-16T10:28:02.967Z,63.42
2022-12-16T10:30:49.744Z,45.20
2022-12-16T10:33:36.016Z,57.10
2022-12-16T10:36:22.740Z,60.72
2022-12-16T10:39:11.257Z,62.28
2022-12-16T10:41:59.269Z,58.35
2022-12-16T10:44:48.172Z,52.13
2022-12-16T10:47:34.401Z,54.90
2022-12-16T10:50:20.365Z,54.15
2022-12-16T10:53:12.777Z,49.92
2022-12-16T10:56:30.857Z,51.97
2022-12-16T10:59:22.750Z,49.83
2022-12-16T11:02:18.888Z,47.38
2022-12-16T11:05:05.886Z,40.78
2022-12-16T11:08:03.867Z,43.28
2022-12-16T11:10:49.794Z,46.83
2022-12-16T11:13:42.138Z,55.53
2022-12-16T11:16:39.385Z,52.90
2022-12-16T11:19:37.934Z,56.40
2022-12-16T11:22:37.080Z,36.50
2022-12-16T11:25:23.924Z,57.95
2022-12-16T11:28:10.101Z,60.47
2022-12-16T11:31:03.469Z,60.20
2022-12-16T11:33:49.488Z,68.07
2022-12-16T11:36:40.867Z,67.78
2022-12-16T11:39:27.281Z,65.55
2022-12-16T11:42:13.732Z,68.95
2022-12-16T11:45:03.703Z,70.47
2022-12-16T11:47:57.821Z,72.35
2022-12-16T11:50:45.367Z,64.50
2022-12-16T11:53:53.843Z,66.30
2022-12-16T11:56:42.362Z,56.13
2022-12-16T11:59:51.043Z,53.75
2022-12-16T12:02:46.132Z,59.95
2022-12-16T12:05:32.948Z,55.05
2022-12-16T12:08:29.034Z,54.17
2022-12-16T12:11:15.051Z,57.58
2022-12-16T12:14:10.096Z,51.08
2022-12-16T12:17:09.676Z,48.33
2022-12-16T12:20:01.395Z,49.88
2022-12-16T12:22:47.163Z,44.80
2022-12-16T12:25:51.932Z,47.55
2022-12-16T12:28:46.585Z,32.65
2022-12-16T12:31:41.255Z,45.20
2022-12-16T12:34:31.031Z,44.28
2022-12-16T12:37:25.188Z,47.55
2022-12-16T12:40:19.737Z,38.38
2022-12-16T12:43:08.699Z,36.80
2022-12-16T12:46:09.469Z,27.33
2022-12-16T12:49:03.974Z,34.20
2022-12-16T12:52:21.610Z,44.30
2022-12-16T12:55:26.279Z,54.50
2022-12-16T12:58:13.598Z,39.50
2022-12-16T13:01:02.669Z,42.05
2022-12-16T13:04:03.311Z,42.45
2022-12-16T13:06:49.201Z,65.70
2022-12-16T13:10:00.879Z,39.97
2022-12-16T13:15:40.608Z,29.25
2022-12-16T13:18:26.760Z,37.00
2022-12-16T13:21:18.295Z,30.50
2022-12-16T13:24:04.972Z,36.45
2022-12-16T13:26:51.738Z,34.92
2022-12-16T13:29:37.672Z,29.15
2022-12-16T13:32:26.172Z,27.60
2022-12-16T13:35:22.363Z,24.45
2022-12-16T13:38:34.012Z,32.70
2022-12-16T13:41:21.148Z,28.92
2022-12-16T13:44:11.323Z,39.58
2022-12-16T13:47:02.076Z,28.90
2022-12-16T13:49:56.807Z,37.75
2022-12-16T13:52:42.941Z,48.53
2022-12-16T13:55:33.924Z,35.10
2022-12-16T13:58:22.723Z,35.78
2022-12-16T14:01:15.048Z,31.38
2022-12-16T14:04:03.311Z,32.42
2022-12-16T14:06:50.738Z,32.65
2022-12-16T14:09:56.509Z,35.38
2022-12-16T14:12:57.386Z,29.90
2022-12-16T14:15:53.594Z,31.45
2022-12-16T14:18:57.369Z,30.05
2022-12-16T14:21:47.961Z,43.90
2022-12-16T14:24:40.931Z,49.83
2022-12-16T14:27:32.548Z,34.40
2022-12-16T14:33:04.230Z,32.35
2022-12-16T14:35:50.393Z,41.78
2022-12-16T14:38:47.657Z,33.00
2022-12-16T14:41:34.534Z,34.97
2022-12-16T14:44:21.568Z,45.78
2022-12-16T14:47:10.738Z,38.88
2022-12-16T14:50:07.605Z,39.70
2022-12-16T14:52:53.402Z,33.10
2022-12-16T14:55:45.252Z,32.50
2022-12-16T14:58:32.188Z,29.90
2022-12-16T15:01:19.852Z,34.28
2022-12-16T15:04:07.921Z,35.08
2022-12-16T15:06:57.475Z,32.22
2022-12-16T15:09:51.657Z,34.30
2022-12-16T15:12:39.263Z,33.72
2022-12-16T15:15:27.324Z,35.67
2022-12-16T15:18:15.716Z,24.10
2022-12-16T15:21:11.719Z,31.75
2022-12-16T15:24:01.804Z,31.23
2022-12-16T15:26:50.275Z,28.20
2022-12-16T15:29:54.240Z,26.20
2022-12-16T15:32:49.830Z,32.67
2022-12-16T15:35:46.257Z,28.70
2022-12-16T15:38:34.671Z,27.52
2022-12-16T15:41:21.304Z,31.08
2022-12-16T15:44:07.313Z,29.88
2022-12-16T15:46:53.717Z,30.30
2022-12-16T15:49:41.362Z,33.30
2022-12-16T15:52:47.615Z,27.75
2022-12-16T15:55:43.609Z,31.13
2022-12-16T15:58:38.217Z,24.52
2022-12-16T16:01:36.070Z,29.52
2022-12-16T16:04:22.401Z,25.20
2022-12-16T16:07:09.756Z,28.77
2022-12-16T16:09:56.765Z,32.97
2022-12-16T16:12:43.162Z,36.10
2022-12-16T16:15:30.725Z,22.67
2022-12-16T16:18:18.163Z,31.38
2022-12-16T16:21:04.321Z,33.53
2022-12-16T16:23:50.484Z,31.83
2022-12-16T16:26:37.668Z,30.90
2022-12-16T16:29:23.994Z,31.55
2022-12-16T16:32:10.133Z,25.20
2022-12-16T16:34:56.056Z,30.23
2022-12-16T16:37:41.986Z,28.15
2022-12-16T16:40:35.448Z,32.13
2022-12-16T16:43:21.344Z,32.72
2022-12-16T16:46:11.898Z,33.92
2022-12-16T16:48:58.000Z,35.58
2022-12-16T16:51:43.920Z,25.05
2022-12-16T16:54:30.091Z,22.88
2022-12-16T16:57:16.152Z,27.25
2022-12-16T17:00:02.299Z,29.92
2022-12-16T17:02:48.162Z,30.92
2022-12-16T17:05:34.079Z,33.92
2022-12-16T17:08:19.984Z,32.78
2022-12-16T17:11:06.693Z,37.97
2022-12-16T17:13:52.448Z,37.03
2022-12-16T17:16:38.565Z,34.33
2022-12-16T17:19:24.238Z,38.45
2022-12-16T17:22:10.249Z,34.90
2022-12-16T17:24:56.149Z,35.15
2022-12-16T17:27:43.731Z,34.78
2022-12-16T17:30:35.300Z,32.13
2022-12-16T17:36:10.412Z,33.03
2022-12-16T17:39:00.199Z,36.33
2022-12-16T17:41:50.112Z,31.95
2022-12-16T17:44:36.060Z,35.95
2022-12-16T17:47:21.960Z,34.38
2022-12-16T17:50:08.061Z,31.70
2022-12-16T17:52:54.047Z,22.70
2022-12-16T17:55:40.074Z,25.13
2022-12-16T17:58:25.900Z,35.70
2022-12-16T18:01:11.860Z,32.78
2022-12-16T18:03:57.866Z,33.60
2022-12-16T18:06:43.792Z,34.83
2022-12-16T18:09:29.779Z,30.60
2022-12-16T18:12:15.712Z,33.38
2022-12-16T18:15:21.438Z,35.17
2022-12-16T18:18:07.894Z,34.17
2022-12-16T18:20:54.247Z,32.15
2022-12-16T18:23:40.693Z,33.22
2022-12-16T18:26:27.264Z,30.80
2022-12-16T18:29:13.333Z,34.65
2022-12-16T18:31:59.316Z,30.27
2022-12-16T18:34:45.160Z,32.33
2022-12-16T18:37:31.560Z,34.13
2022-12-16T18:40:17.603Z,31.77
2022-12-16T18:43:03.582Z,34.55
2022-12-16T18:45:49.769Z,36.85
2022-12-16T18:48:52.400Z,36.75
2022-12-16T18:51:38.253Z,30.30
2022-12-16T18:54:24.273Z,33.10
2022-12-16T18:57:10.254Z,29.92
2022-12-16T18:59:56.301Z,31.40
2022-12-16T19:02:42.722Z,31.73
2022-12-16T19:05:28.601Z,33.75
2022-12-16T19:08:14.789Z,30.75
2022-12-16T19:11:00.426Z,30.98
2022-12-16T19:13:46.722Z,32.38
2022-12-16T19:16:32.623Z,32.28
2022-12-16T19:19:20.481Z,31.35
2022-12-16T19:22:07.114Z,31.60
2022-12-16T19:24:56.276Z,31.35
2022-12-16T19:27:42.262Z,37.67
2022-12-16T19:30:28.917Z,35.08
2022-12-16T19:33:14.720Z,34.92
2022-12-16T19:36:00.788Z,44.10
2022-12-16T19:38:46.648Z,36.35
2022-12-16T19:41:47.005Z,33.65
2022-12-16T19:44:32.993Z,29.83
2022-12-16T19:47:19.031Z,23.80
2022-12-16T19:50:04.951Z,30.15
2022-12-16T19:52:51.686Z,35.05
2022-12-16T19:55:37.362Z,35.17
2022-12-16T19:58:23.362Z,32.90
2022-12-16T20:01:09.516Z,34.30
2022-12-16T20:03:56.652Z,32.83
2022-12-16T20:06:42.983Z,28.98
2022-12-16T20:09:29.103Z,40.17
2022-12-16T20:12:15.057Z,35.95
2022-12-16T20:15:01.054Z,39.90
2022-12-16T20:17:46.918Z,34.72
2022-12-16T20:20:33.094Z,28.48
2022-12-16T20:23:19.194Z,35.05
2022-12-16T20:26:12.918Z,32.45
2022-12-16T20:28:58.906Z,51.90
2022-12-16T20:31:44.899Z,50.85
2022-12-16T20:34:31.030Z,48.72
2022-12-16T20:37:17.174Z,45.90
2022-12-16T20:40:03.277Z,62.03
2022-12-16T20:42:49.239Z,61.53
2022-12-16T20:45:35.728Z,87.05
2022-12-16T20:48:22.093Z,118.05
2022-12-16T20:51:22.574Z,85.82
2022-12-16T20:54:11.026Z,61.92
2022-12-16T20:56:57.200Z,84.57
2022-12-16T20:59:43.340Z,128.77
2022-12-16T21:02:33.761Z,57.28
2022-12-16T21:05:20.166Z,77.07
2022-12-16T21:08:06.227Z,52.60
2022-12-16T21:10:52.191Z,93.55
2022-12-16T21:13:38.334Z,60.45
2022-12-16T21:16:26.036Z,155.10
2022-12-16T21:19:12.008Z,71.32
2022-12-16T21:21:58.051Z,45.33
2022-12-16T21:24:44.177Z,77.95
2022-12-16T21:27:30.277Z,42.22
2022-12-16T21:30:16.196Z,65.53
2022-12-16T21:33:02.233Z,54.03
2022-12-16T21:35:48.210Z,35.17
2022-12-16T21:38:34.312Z,47.90
2022-12-16T21:41:20.348Z,62.63
2022-12-16T21:44:06.421Z,60.45
2022-12-16T21:46:52.515Z,38.67
2022-12-16T21:49:39.462Z,55.60
2022-12-16T21:52:25.505Z,37.17
2022-12-16T21:55:11.705Z,39.63
2022-12-16T21:57:57.689Z,40.25
2022-12-16T22:00:43.765Z,77.28
2022-12-16T22:03:29.577Z,62.83
2022-12-16T22:06:18.118Z,81.72
2022-12-16T22:09:04.159Z,43.50
2022-12-16T22:11:50.157Z,59.75
2022-12-16T22:14:36.105Z,55.92
2022-12-16T22:17:22.271Z,77.80
2022-12-16T22:20:08.061Z,75.70
2022-12-16T22:22:54.125Z,58.97
2022-12-16T22:25:42.183Z,112.32
2022-12-16T22:28:28.119Z,139.18
2022-12-16T22:31:16.065Z,113.85
2022-12-16T22:34:02.520Z,98.85
2022-12-16T22:36:48.034Z,141.15
2022-12-16T22:39:34.100Z,125.47
2022-12-16T22:42:19.869Z,110.65
2022-12-16T22:45:05.902Z,120.68
2022-12-16T22:47:51.883Z,116.72
2022-12-16T22:50:37.847Z,94.20
2022-12-16T22:53:23.970Z,95.97
2022-12-16T22:56:13.710Z,151.38
2022-12-16T22:58:59.705Z,169.68
2022-12-16T23:01:45.668Z,165.65
2022-12-16T23:04:31.526Z,135.30
2022-12-16T23:07:17.443Z,138.80
2022-12-16T23:10:03.560Z,112.60
2022-12-16T23:12:49.714Z,130.43
2022-12-16T23:15:35.752Z,157.00
2022-12-16T23:18:21.650Z,198.70
2022-12-16T23:21:09.714Z,193.65
2022-12-16T23:27:02.392Z,247.95
2022-12-16T23:29:48.565Z,222.70
2022-12-16T23:35:25.667Z,156.30
2022-12-16T23:38:18.595Z,181.45
2022-12-16T23:41:04.512Z,200.60
2022-12-16T23:43:50.425Z,192.18
2022-12-16T23:46:36.559Z,196.07
2022-12-16T23:49:22.414Z,121.47
2022-12-16T23:52:08.433Z,114.25
2022-12-16T23:54:54.388Z,206.73
2022-12-16T23:57:42.131Z,134.25
